Time,TemperatureF,DewpointF,PressureIn,WindDirection,WindDirectionDegrees,WindSpeedMPH,WindSpeedGustMPH,Humidity,HourlyPrecipIn,Conditions,Clouds,dailyrainin,SolarRadiationWatts/m^2,SoftwareType,DateUTC
2013-04-03 00:02:00,23.9,14.2,30.30,NNE,31,0.0,0.0,66,0.00,,,0.00,0,Wunderground v.1.15,2013-04-03 05:02:00,
2013-04-03 00:12:00,23.5,14.1,30.30,NNE,31,0.0,0.0,67,0.00,,,0.00,0,Wunderground v.1.15,2013-04-03 05:12:00,
2013-04-03 00:22:00,23.2,14.2,30.31,NNE,31,0.0,0.0,68,0.00,,,0.00,0,Wunderground v.1.15,2013-04-03 05:22:00,
2013-04-03 00:32:00,23.0,14.0,30.31,NNE,31,0.0,0.0,68,0.00,,,0.00,0,Wunderground v.1.15,2013-04-03 05:32:00,
2013-04-03 00:42:00,22.4,14.1,30.31,NNE,31,0.0,0.0,70,0.00,,,0.00,0,Wunderground v.1.15,2013-04-03 05:42:00,
2013-04-03 00:52:00,22.1,13.8,30.31,NNE,31,0.0,0.0,70,0.00,,,0.00,0,Wunderground v.1.15,2013-04-03 05:52:00,
2013-04-03 01:02:00,21.8,13.8,30.31,NNE,31,0.0,0.0,71,0.00,,,0.00,0,Wunderground v.1.15,2013-04-03 06:02:00,
2013-04-03 01:12:00,21.8,13.8,30.31,NNE,31,0.0,0.0,71,0.00,,,0.00,0,Wunderground v.1.15,2013-04-03 06:12:00,
2013-04-03 01:22:00,21.3,13.4,30.31,NNE,31,0.0,0.0,71,0.00,,,0.00,0,Wunderground v.1.15,2013-04-03 06:22:00,
2013-04-03 01:32:00,20.6,13.6,30.31,NNE,31,0.0,0.0,74,0.00,,,0.00,0,Wunderground v.1.15,2013-04-03 06:32:00,
2013-04-03 01:42:00,20.3,13.6,30.31,NNE,31,0.0,0.0,75,0.00,,,0.00,0,Wunderground v.1.15,2013-04-03 06:42:00,
2013-04-03 01:52:00,20.0,13.6,30.32,NNE,31,0.0,0.0,76,0.00,,,0.00,0,Wunderground v.1.15,2013-04-03 06:52:00,
2013-04-03 02:02:00,20.3,13.9,30.33,NNE,31,0.0,0.0,76,0.00,,,0.00,0,Wunderground v.1.15,2013-04-03 07:02:00,
2013-04-03 02:12:00,20.0,13.6,30.33,NNE,31,0.0,0.0,76,0.00,,,0.00,0,Wunderground v.1.15,2013-04-03 07:12:00,
2013-04-03 02:22:00,20.0,13.9,30.33,NNE,31,0.0,0.0,77,0.00,,,0.00,0,Wunderground v.1.15,2013-04-03 07:22:00,
2013-04-03 02:32:00,19.5,13.5,30.33,NNE,31,0.0,0.0,77,0.00,,,0.00,0,Wunderground v.1.15,2013-04-03 07:32:00,
2013-04-03 02:42:00,19.2,13.5,30.33,NNE,31,0.0,0.0,78,0.00,,,0.00,0,Wunderground v.1.15,2013-04-03 07:42:00,
2013-04-03 02:52:00,19.2,13.5,30.33,NNE,31,0.0,0.0,78,0.00,,,0.00,0,Wunderground v.1.15,2013-04-03 07:52:00,
2013-04-03 03:02:00,19.2,13.8,30.33,NNE,31,0.0,0.0,79,0.00,,,0.00,0,Wunderground v.1.15,2013-04-03 08:02:00,
2013-04-03 03:12:00,19.4,13.7,30.33,NNE,31,0.0,0.0,78,0.00,,,0.00,0,Wunderground v.1.15,2013-04-03 08:12:00,
2013-04-03 03:22:00,19.4,13.9,30.33,NNE,31,0.0,0.0,79,0.00,,,0.00,0,Wunderground v.1.15,2013-04-03 08:22:00,
2013-04-03 03:32:00,19.5,13.8,30.34,NNE,31,0.0,0.0,78,0.00,,,0.00,0,Wunderground v.1.15,2013-04-03 08:32:00,
2013-04-03 03:42:00,20.0,13.3,30.34,NNE,31,0.0,0.0,75,0.00,,,0.00,0,Wunderground v.1.15,2013-04-03 08:42:00,
2013-04-03 03:52:00,20.3,12.4,30.34,NNE,31,0.0,0.0,71,0.00,,,0.00,0,Wunderground v.1.15,2013-04-03 08:52:00,
2013-04-03 04:02:00,21.0,12.1,30.35,NNE,31,0.0,0.0,68,0.00,,,0.00,0,Wunderground v.1.15,2013-04-03 09:02:00,
2013-04-03 04:12:00,21.6,11.3,30.35,NNE,31,1.0,3.0,64,0.00,,,0.00,0,Wunderground v.1.15,2013-04-03 09:12:00,
2013-04-03 04:22:00,21.8,11.1,30.36,NNE,31,1.0,1.0,63,0.00,,,0.00,0,Wunderground v.1.15,2013-04-03 09:22:00,
2013-04-03 04:32:00,21.6,11.3,30.36,NNE,28,0.0,0.0,64,0.00,,,0.00,0,Wunderground v.1.15,2013-04-03 09:32:00,
2013-04-03 04:42:00,21.6,10.6,30.36,NNE,31,0.0,1.0,62,0.00,,,0.00,0,Wunderground v.1.15,2013-04-03 09:42:00,
2013-04-03 04:52:00,21.8,10.4,30.36,NNE,31,0.0,0.0,61,0.00,,,0.00,0,Wunderground v.1.15,2013-04-03 09:52:00,
2013-04-03 05:12:00,21.8,10.4,30.37,NNE,31,1.0,1.0,61,0.00,,,0.00,0,Wunderground v.1.15,2013-04-03 10:12:00,
2013-04-03 05:22:00,21.8,10.0,30.37,NNE,31,1.0,1.0,60,0.00,,,0.00,0,Wunderground v.1.15,2013-04-03 10:22:00,
2013-04-03 05:32:00,21.8,9.7,30.38,NNE,31,1.0,1.0,59,0.00,,,0.00,0,Wunderground v.1.15,2013-04-03 10:32:00,
2013-04-03 05:42:00,21.6,9.5,30.38,NNE,31,1.0,3.0,59,0.00,,,0.00,0,Wunderground v.1.15,2013-04-03 10:42:00,
2013-04-03 05:52:00,21.3,9.2,30.38,NNE,31,2.0,2.0,59,0.00,,,0.00,0,Wunderground v.1.15,2013-04-03 10:52:00,
2013-04-03 06:02:00,21.1,9.0,30.38,NNE,31,0.0,0.0,59,0.00,,,0.00,0,Wunderground v.1.15,2013-04-03 11:02:00,
2013-04-03 06:12:00,21.1,9.0,30.38,NNE,31,1.0,2.0,59,0.00,,,0.00,0,Wunderground v.1.15,2013-04-03 11:12:00,
2013-04-03 06:22:00,21.3,9.2,30.39,NNE,31,2.0,2.0,59,0.00,,,0.00,0,Wunderground v.1.15,2013-04-03 11:22:00,
2013-04-03 06:32:00,21.1,9.0,30.39,NNE,31,1.0,1.0,59,0.00,,,0.00,0,Wunderground v.1.15,2013-04-03 11:32:00,
2013-04-03 06:42:00,20.6,9.3,30.39,NNE,31,1.0,1.0,61,0.00,,,0.00,11,Wunderground v.1.15,2013-04-03 11:42:00,
2013-04-03 06:52:00,20.6,9.3,30.40,NNE,31,1.0,1.0,61,0.00,,,0.00,16,Wunderground v.1.15,2013-04-03 11:52:00,
2013-04-03 07:02:00,20.8,9.5,30.41,NNE,28,0.0,0.0,61,0.00,,,0.00,25,Wunderground v.1.15,2013-04-03 12:02:00,
2013-04-03 07:12:00,21.3,9.9,30.41,NNE,31,0.0,0.0,61,0.00,,,0.00,93,Wunderground v.1.15,2013-04-03 12:12:00,
2013-04-03 07:22:00,22.1,10.3,30.41,NNE,31,0.0,1.0,60,0.00,,,0.00,125,Wunderground v.1.15,2013-04-03 12:22:00,
2013-04-03 07:32:00,22.9,10.3,30.41,NNE,31,2.0,2.0,58,0.00,,,0.00,158,Wunderground v.1.15,2013-04-03 12:32:00,
2013-04-03 07:42:00,23.6,11.0,30.41,NNE,31,2.0,2.0,58,0.00,,,0.00,185,Wunderground v.1.15,2013-04-03 12:42:00,
2013-04-03 07:52:00,24.2,10.3,30.42,NNE,31,2.0,5.0,55,0.00,,,0.00,215,Wunderground v.1.15,2013-04-03 12:52:00,
2013-04-03 08:02:00,24.8,10.9,30.43,NNE,31,3.0,3.0,55,0.00,,,0.00,246,Wunderground v.1.15,2013-04-03 13:02:00,
2013-04-03 08:12:00,25.4,11.5,30.43,NNE,21,4.0,6.0,55,0.00,,,0.00,276,Wunderground v.1.15,2013-04-03 13:12:00,
2013-04-03 08:22:00,26.0,11.6,30.43,NNE,20,3.0,3.0,54,0.00,,,0.00,308,Wunderground v.1.15,2013-04-03 13:22:00,
2013-04-03 08:32:00,26.4,12.4,30.44,NNE,20,3.0,5.0,55,0.00,,,0.00,338,Wunderground v.1.15,2013-04-03 13:32:00,
2013-04-03 08:42:00,26.9,12.0,30.44,NNE,16,3.0,5.0,53,0.00,,,0.00,368,Wunderground v.1.15,2013-04-03 13:42:00,
2013-04-03 08:52:00,27.6,12.2,30.44,North,3,3.0,3.0,52,0.00,,,0.00,398,Wunderground v.1.15,2013-04-03 13:52:00,
2013-04-03 09:02:00,27.9,12.1,30.44,North,4,3.0,3.0,51,0.00,,,0.00,426,Wunderground v.1.15,2013-04-03 14:02:00,
2013-04-03 09:12:00,28.2,12.8,30.44,North,4,2.0,3.0,52,0.00,,,0.00,454,Wunderground v.1.15,2013-04-03 14:12:00,
2013-04-03 09:22:00,28.8,13.4,30.44,North,4,3.0,3.0,52,0.00,,,0.00,484,Wunderground v.1.15,2013-04-03 14:22:00,
2013-04-03 09:32:00,29.1,12.8,30.45,North,354,3.0,6.0,50,0.00,,,0.00,507,Wunderground v.1.15,2013-04-03 14:32:00,
2013-04-03 09:42:00,29.4,12.6,30.45,North,359,4.0,4.0,49,0.00,,,0.00,531,Wunderground v.1.15,2013-04-03 14:42:00,
2013-04-03 09:52:00,29.5,12.2,30.45,North,352,4.0,4.0,48,0.00,,,0.00,558,Wunderground v.1.15,2013-04-03 14:52:00,
2013-04-03 10:02:00,30.0,13.6,30.46,North,352,4.0,6.0,50,0.00,,,0.00,579,Wunderground v.1.15,2013-04-03 15:02:00,
2013-04-03 10:12:00,30.1,13.7,30.46,North,352,4.0,6.0,50,0.00,,,0.00,602,Wunderground v.1.15,2013-04-03 15:12:00,
2013-04-03 10:22:00,29.7,12.8,30.47,WNW,302,5.0,5.0,49,0.00,,,0.00,623,Wunderground v.1.15,2013-04-03 15:22:00,
2013-04-03 10:32:00,30.3,12.5,30.47,NW,322,5.0,5.0,47,0.00,,,0.00,644,Wunderground v.1.15,2013-04-03 15:32:00,
2013-04-03 10:42:00,30.7,10.8,30.47,NW,322,5.0,5.0,43,0.00,,,0.00,663,Wunderground v.1.15,2013-04-03 15:42:00,
2013-04-03 10:52:00,30.9,11.0,30.47,NW,322,4.0,5.0,43,0.00,,,0.00,683,Wunderground v.1.15,2013-04-03 15:52:00,
2013-04-03 11:02:00,31.3,10.3,30.48,NW,322,4.0,4.0,41,0.00,,,0.00,697,Wunderground v.1.15,2013-04-03 16:02:00,
2013-04-03 11:12:00,31.5,11.5,30.48,WNW,284,4.0,4.0,43,0.00,,,0.00,713,Wunderground v.1.15,2013-04-03 16:12:00,
2013-04-03 11:32:00,32.2,11.6,30.49,NW,316,5.0,8.0,42,0.00,,,0.00,741,Wunderground v.1.15,2013-04-03 16:32:00,
2013-04-03 11:42:00,31.6,10.6,30.49,WNW,284,5.0,5.0,41,0.00,,,0.00,753,Wunderground v.1.15,2013-04-03 16:42:00,
2013-04-03 11:52:00,31.6,10.0,30.48,WNW,295,6.0,6.0,40,0.00,,,0.00,762,Wunderground v.1.15,2013-04-03 16:52:00,
2013-04-03 12:02:00,32.7,11.0,30.48,West,267,3.0,3.0,40,0.00,,,0.00,771,Wunderground v.1.15,2013-04-03 17:02:00,
2013-04-03 12:12:00,32.9,10.6,30.48,WSW,256,4.0,4.0,39,0.00,,,0.00,776,Wunderground v.1.15,2013-04-03 17:12:00,
2013-04-03 12:22:00,33.5,11.7,30.47,WNW,289,3.0,5.0,40,0.00,,,0.00,781,Wunderground v.1.15,2013-04-03 17:22:00,
2013-04-03 12:32:00,33.5,11.2,30.47,SSW,209,4.0,6.0,39,0.00,,,0.00,787,Wunderground v.1.15,2013-04-03 17:32:00,
2013-04-03 12:42:00,33.7,11.3,30.47,WNW,292,5.0,5.0,39,0.00,,,0.00,787,Wunderground v.1.15,2013-04-03 17:42:00,
2013-04-03 12:52:00,34.1,9.9,30.47,WNW,288,5.0,5.0,36,0.00,,,0.00,788,Wunderground v.1.15,2013-04-03 17:52:00,
2013-04-03 13:02:00,34.3,10.1,30.46,West,280,4.0,4.0,36,0.00,,,0.00,790,Wunderground v.1.15,2013-04-03 18:02:00,
2013-04-03 13:22:00,34.3,8.8,30.46,SW,227,5.0,8.0,34,0.00,,,0.00,781,Wunderground v.1.15,2013-04-03 18:22:00,
2013-04-03 13:42:00,34.7,9.8,30.45,West,275,5.0,5.0,35,0.00,,,0.00,771,Wunderground v.1.15,2013-04-03 18:42:00,
2013-04-03 13:52:00,35.2,6.8,30.44,West,280,5.0,8.0,30,0.00,,,0.00,764,Wunderground v.1.15,2013-04-03 18:52:00,
2013-04-03 14:02:00,35.0,7.4,30.43,NW,304,5.0,5.0,31,0.00,,,0.00,750,Wunderground v.1.15,2013-04-03 19:02:00,
2013-04-03 14:12:00,35.8,8.1,30.43,NW,316,5.0,7.0,31,0.00,,,0.00,737,Wunderground v.1.15,2013-04-03 19:12:00,
2013-04-03 14:22:00,35.9,5.9,30.43,NW,309,4.0,4.0,28,0.00,,,0.00,730,Wunderground v.1.15,2013-04-03 19:22:00,
2013-04-03 14:42:00,36.2,9.1,30.42,NNW,339,5.0,6.0,32,0.00,,,0.00,702,Wunderground v.1.15,2013-04-03 19:42:00,
2013-04-03 14:52:00,36.3,9.2,30.41,NNW,342,4.0,4.0,32,0.00,,,0.00,688,Wunderground v.1.15,2013-04-03 19:52:00,
2013-04-03 15:02:00,36.5,10.1,30.39,NNW,335,4.0,4.0,33,0.00,,,0.00,669,Wunderground v.1.15,2013-04-03 20:02:00,
2013-04-03 15:12:00,36.3,8.5,30.39,NNW,336,4.0,4.0,31,0.00,,,0.00,649,Wunderground v.1.15,2013-04-03 20:12:00,
2013-04-03 15:22:00,37.3,10.1,30.39,NNW,336,1.0,6.0,32,0.00,,,0.00,630,Wunderground v.1.15,2013-04-03 20:22:00,
2013-04-03 15:32:00,37.2,9.3,30.38,East,80,3.0,7.0,31,0.00,,,0.00,604,Wunderground v.1.15,2013-04-03 20:32:00,
2013-04-03 15:42:00,35.6,15.8,30.38,SE,130,5.0,5.0,44,0.00,,,0.00,584,Wunderground v.1.15,2013-04-03 20:42:00,
2013-04-03 15:52:00,34.6,15.4,30.38,SE,138,6.0,6.0,45,0.00,,,0.00,552,Wunderground v.1.15,2013-04-03 20:52:00,
2013-04-03 16:02:00,34.3,15.1,30.38,ESE,119,7.0,7.0,45,0.00,,,0.00,530,Wunderground v.1.15,2013-04-03 21:02:00,
2013-04-03 16:12:00,34.1,15.5,30.38,ESE,113,7.0,11.0,46,0.00,,,0.00,505,Wunderground v.1.15,2013-04-03 21:12:00,
2013-04-03 16:22:00,33.4,14.8,30.37,SE,126,8.0,9.0,46,0.00,,,0.00,477,Wunderground v.1.15,2013-04-03 21:22:00,
2013-04-03 16:32:00,33.4,15.3,30.36,ESE,113,8.0,10.0,47,0.00,,,0.00,449,Wunderground v.1.15,2013-04-03 21:32:00,
2013-04-03 16:42:00,33.5,15.4,30.36,South,189,8.0,13.0,47,0.00,,,0.00,422,Wunderground v.1.15,2013-04-03 21:42:00,
2013-04-03 16:52:00,33.5,16.4,30.37,South,188,11.0,11.0,49,0.00,,,0.00,398,Wunderground v.1.15,2013-04-03 21:52:00,
2013-04-03 17:02:00,34.0,16.3,30.37,SSE,164,9.0,10.0,48,0.00,,,0.00,364,Wunderground v.1.15,2013-04-03 22:02:00,
2013-04-03 17:12:00,33.7,15.1,30.37,SSW,196,10.0,10.0,46,0.00,,,0.00,338,Wunderground v.1.15,2013-04-03 22:12:00,
2013-04-03 17:22:00,33.5,16.4,30.37,SSW,192,11.0,12.0,49,0.00,,,0.00,308,Wunderground v.1.15,2013-04-03 22:22:00,
2013-04-03 17:32:00,33.7,17.0,30.37,South,188,9.0,9.0,50,0.00,,,0.00,276,Wunderground v.1.15,2013-04-03 22:32:00,
2013-04-03 17:42:00,33.4,15.8,30.37,SSW,200,10.0,11.0,48,0.00,,,0.00,246,Wunderground v.1.15,2013-04-03 22:42:00,
2013-04-03 17:52:00,33.2,16.5,30.36,SSE,150,10.0,10.0,50,0.00,,,0.00,215,Wunderground v.1.15,2013-04-03 22:52:00,
2013-04-03 18:02:00,32.9,16.7,30.35,SSE,162,10.0,16.0,51,0.00,,,0.00,183,Wunderground v.1.15,2013-04-03 23:02:00,
2013-04-03 18:12:00,32.5,17.2,30.35,South,182,13.0,13.0,53,0.00,,,0.00,157,Wunderground v.1.15,2013-04-03 23:12:00,
2013-04-03 18:22:00,32.4,17.6,30.35,SSE,155,13.0,13.0,54,0.00,,,0.00,128,Wunderground v.1.15,2013-04-03 23:22:00,
2013-04-03 18:32:00,32.4,18.4,30.35,SSW,210,10.0,10.0,56,0.00,,,0.00,99,Wunderground v.1.15,2013-04-03 23:32:00,
2013-04-03 18:42:00,31.9,18.4,30.35,SSW,202,12.0,17.0,57,0.00,,,0.00,72,Wunderground v.1.15,2013-04-03 23:42:00,
2013-04-03 18:52:00,31.6,18.1,30.35,SSE,151,12.0,12.0,57,0.00,,,0.00,46,Wunderground v.1.15,2013-04-03 23:52:00,
2013-04-03 19:02:00,31.3,18.6,30.35,SSW,192,9.0,9.0,59,0.00,,,0.00,26,Wunderground v.1.15,2013-04-04 00:02:00,
2013-04-03 19:12:00,30.9,18.6,30.35,South,179,9.0,9.0,60,0.00,,,0.00,5,Wunderground v.1.15,2013-04-04 00:12:00,
2013-04-03 19:22:00,30.6,19.1,30.34,SSW,202,9.0,10.0,62,0.00,,,0.00,0,Wunderground v.1.15,2013-04-04 00:22:00,
2013-04-03 19:32:00,30.3,19.6,30.33,South,188,8.0,8.0,64,0.00,,,0.00,0,Wunderground v.1.15,2013-04-04 00:32:00,
2013-04-03 19:52:00,29.8,19.8,30.32,South,185,7.0,7.0,66,0.00,,,0.00,0,Wunderground v.1.15,2013-04-04 00:52:00,
2013-04-03 20:02:00,30.0,20.0,30.32,SSW,193,8.0,8.0,66,0.00,,,0.00,0,Wunderground v.1.15,2013-04-04 01:02:00,
2013-04-03 20:12:00,29.7,20.1,30.32,SSW,200,6.0,9.0,67,0.00,,,0.00,0,Wunderground v.1.15,2013-04-04 01:12:00,
2013-04-03 20:22:00,29.5,19.9,30.31,SSW,210,6.0,7.0,67,0.00,,,0.00,0,Wunderground v.1.15,2013-04-04 01:22:00,
2013-04-03 20:32:00,29.5,20.2,30.30,SSW,199,6.0,6.0,68,0.00,,,0.00,0,Wunderground v.1.15,2013-04-04 01:32:00,
2013-04-03 20:42:00,29.4,20.1,30.30,South,186,6.0,8.0,68,0.00,,,0.00,0,Wunderground v.1.15,2013-04-04 01:42:00,
2013-04-03 20:52:00,29.5,20.6,30.30,SSW,212,7.0,7.0,69,0.00,,,0.00,0,Wunderground v.1.15,2013-04-04 01:52:00,
2013-04-03 21:02:00,29.5,20.9,30.30,SSW,198,7.0,9.0,70,0.00,,,0.00,0,Wunderground v.1.15,2013-04-04 02:02:00,
2013-04-03 21:12:00,30.0,21.1,30.30,SSW,206,9.0,10.0,69,0.00,,,0.00,0,Wunderground v.1.15,2013-04-04 02:12:00,
2013-04-03 21:22:00,30.1,20.8,30.29,SSW,202,9.0,12.0,68,0.00,,,0.00,0,Wunderground v.1.15,2013-04-04 02:22:00,
2013-04-03 21:32:00,30.1,20.8,30.29,South,189,10.0,16.0,68,0.00,,,0.00,0,Wunderground v.1.15,2013-04-04 02:32:00,
2013-04-03 21:42:00,30.3,21.0,30.29,SSW,192,10.0,10.0,68,0.00,,,0.00,0,Wunderground v.1.15,2013-04-04 02:42:00,
2013-04-03 21:52:00,30.3,21.0,30.29,SSW,209,8.0,9.0,68,0.00,,,0.00,0,Wunderground v.1.15,2013-04-04 02:52:00,
2013-04-03 22:02:00,30.1,20.8,30.28,SSW,206,8.0,8.0,68,0.00,,,0.00,0,Wunderground v.1.15,2013-04-04 03:02:00,
2013-04-03 22:12:00,30.1,20.8,30.28,South,185,9.0,9.0,68,0.00,,,0.00,0,Wunderground v.1.15,2013-04-04 03:12:00,
2013-04-03 22:22:00,30.0,21.4,30.28,SSW,205,7.0,12.0,70,0.00,,,0.00,0,Wunderground v.1.15,2013-04-04 03:22:00,
2013-04-03 22:32:00,30.0,21.7,30.27,SW,226,9.0,9.0,71,0.00,,,0.00,0,Wunderground v.1.15,2013-04-04 03:32:00,
2013-04-03 22:42:00,30.3,22.0,30.27,SSW,206,10.0,10.0,71,0.00,,,0.00,0,Wunderground v.1.15,2013-04-04 03:42:00,
2013-04-03 22:52:00,30.0,21.7,30.26,SW,232,10.0,10.0,71,0.00,,,0.00,0,Wunderground v.1.15,2013-04-04 03:52:00,
2013-04-03 23:02:00,30.1,21.5,30.26,SSW,195,10.0,10.0,70,0.00,,,0.00,0,Wunderground v.1.15,2013-04-04 04:02:00,
2013-04-03 23:12:00,30.3,21.0,30.26,SW,220,10.0,12.0,68,0.00,,,0.00,0,Wunderground v.1.15,2013-04-04 04:12:00,
2013-04-03 23:22:00,30.6,20.9,30.25,SW,217,12.0,12.0,67,0.00,,,0.00,0,Wunderground v.1.15,2013-04-04 04:22:00,
2013-04-03 23:32:00,30.7,20.7,30.25,SSW,206,12.0,12.0,66,0.00,,,0.00,0,Wunderground v.1.15,2013-04-04 04:32:00,
2013-04-03 23:42:00,30.6,20.6,30.25,SW,222,11.0,11.0,66,0.00,,,0.00,0,Wunderground v.1.15,2013-04-04 04:42:00,
2013-04-03 23:52:00,30.4,20.4,30.24,SW,219,12.0,12.0,66,0.00,,,0.00,0,Wunderground v.1.15,2013-04-04 04:52:00,